Time;durP1;ratioP1;P1;durP2;ratioP2;P2;SDS_P1;SDS_P2;PMS_P1;PMS_P2;Temp;Humidity;BMP_temperature;BMP_pressure;BME280_temperature;BME280_humidity;BME280_pressure;Samples;Min_cycle;Max_cycle;Signal;HPM_P1;HPM_P2
2023/07/30 00:00:21;;;;;;;;;;;;;;;25.98;48.15;100725.47;5061798;28;19921;-86
2023/07/30 00:02:47;;;;;;;;;;;;;;;25.97;48.20;100723.88;5061180;28;19917;-86
2023/07/30 00:05:12;;;;;;;;;;;;;;;25.96;48.02;100734.03;5064096;28;19931;-85
2023/07/30 00:07:37;;;;;;;;;;;;;;;25.94;48.17;100736.34;5056576;28;20003;-86
2023/07/30 00:10:03;;;;;;;;;;;;;;;25.93;48.14;100748.47;5059777;28;19920;-86
2023/07/30 00:12:28;;;;;;;;;;;;;;;25.90;48.13;100746.44;5059438;28;21373;-86
2023/07/30 00:14:53;;;;;;;;;;;;;;;25.85;48.08;100747.50;5060959;28;20070;-86
2023/07/30 00:17:19;;;;;;;;;;;;;;;25.83;48.20;100749.78;5066853;28;19925;-86
2023/07/30 00:19:44;;;;;;;;;;;;;;;25.82;48.11;100750.13;5060042;28;19924;-86
2023/07/30 00:22:09;;;;;;;;;;;;;;;25.81;48.31;100754.03;5060512;28;20009;-85
2023/07/30 00:24:34;;;;;;;;;;;;;;;25.78;48.23;100738.25;5062511;28;19922;-86
2023/07/30 00:27:00;;;;;;;;;;;;;;;25.76;48.14;100746.84;5064034;28;19947;-86
2023/07/30 00:29:25;;;;;;;;;;;;;;;25.76;48.19;100746.84;5062509;28;19928;-86
2023/07/30 00:31:50;;;;;;;;;;;;;;;25.73;48.16;100753.03;5064433;28;19924;-85
2023/07/30 00:34:16;;;;;;;;;;;;;;;25.67;48.11;100751.66;5059260;28;19923;-86
2023/07/30 00:36:41;;;;;;;;;;;;;;;25.58;48.14;100751.81;5058224;28;19929;-86
2023/07/30 00:39:06;;;;;;;;;;;;;;;25.54;48.18;100748.19;5058133;28;19917;-86
2023/07/30 00:41:32;;;;;;;;;;;;;;;25.53;48.20;100749.31;5060403;28;20579;-86
2023/07/30 00:43:57;;;;;;;;;;;;;;;25.52;48.07;100747.72;5062663;28;20060;-86
2023/07/30 00:46:23;;;;;;;;;;;;;;;25.48;48.14;100752.28;5060229;28;19916;-85
2023/07/30 00:48:48;;;;;;;;;;;;;;;25.44;48.11;100756.88;5061424;28;20151;-86
2023/07/30 00:51:15;;;;;;;;;;;;;;;25.39;48.15;100754.41;5060214;28;19990;-85
2023/07/30 00:53:40;;;;;;;;;;;;;;;25.36;48.22;100752.34;5064245;28;19920;-85
2023/07/30 00:56:05;;;;;;;;;;;;;;;25.33;48.18;100752.25;5059030;28;19991;-84
2023/07/30 00:58:31;;;;;;;;;;;;;;;25.31;48.34;100760.81;5063260;28;20445;-86
2023/07/30 01:00:56;;;;;;;;;;;;;;;25.29;48.16;100763.09;5062199;28;20385;-86
2023/07/30 01:03:22;;;;;;;;;;;;;;;25.24;48.20;100766.09;5061455;28;19920;-86
2023/07/30 01:05:47;;;;;;;;;;;;;;;25.22;48.21;100760.97;5060534;28;19947;-86
2023/07/30 01:08:13;;;;;;;;;;;;;;;25.20;48.23;100765.19;5059097;28;20069;-86
2023/07/30 01:10:38;;;;;;;;;;;;;;;25.17;48.21;100757.66;5058200;28;19917;-86
2023/07/30 01:13:04;;;;;;;;;;;;;;;25.13;48.11;100765.75;5059250;28;20225;-86
2023/07/30 01:15:31;;;;;;;;;;;;;;;25.11;48.27;100767.25;5063980;28;19920;-86
2023/07/30 01:17:56;;;;;;;;;;;;;;;25.10;48.27;100769.19;5061020;28;19927;-85
2023/07/30 01:20:21;;;;;;;;;;;;;;;25.08;48.19;100774.22;5059773;28;19929;-85
2023/07/30 01:22:47;;;;;;;;;;;;;;;25.08;48.09;100776.97;5064127;28;19920;-85
2023/07/30 01:25:13;;;;;;;;;;;;;;;25.06;48.16;100776.53;5058414;28;19925;-86
2023/07/30 01:27:41;;;;;;;;;;;;;;;25.04;48.15;100772.53;5058609;28;20320;-86
2023/07/30 01:30:21;;;;;;;;;;;;;;;25.04;48.14;100780.75;5054429;28;19927;-86
2023/07/30 01:32:48;;;;;;;;;;;;;;;25.03;48.06;100779.16;5060116;28;19916;-85
2023/07/30 01:35:14;;;;;;;;;;;;;;;25.02;48.03;100778.34;5061095;28;19927;-86
2023/07/30 01:37:41;;;;;;;;;;;;;;;25.03;48.06;100776.41;5057374;28;20140;-86
2023/07/30 01:40:07;;;;;;;;;;;;;;;25.04;47.97;100778.81;5060448;28;19994;-86
2023/07/30 01:42:32;;;;;;;;;;;;;;;25.04;48.02;100778.81;5059196;28;19924;-86
2023/07/30 01:44:58;;;;;;;;;;;;;;;25.05;47.90;100772.19;5060208;28;19920;-86
2023/07/30 01:47:23;;;;;;;;;;;;;;;25.03;47.88;100773.66;5059521;28;19917;-86
2023/07/30 01:49:48;;;;;;;;;;;;;;;25.00;47.92;100777.91;5059423;28;20359;-86
2023/07/30 01:52:14;;;;;;;;;;;;;;;24.97;47.86;100784.84;5057123;28;20400;-85
2023/07/30 01:54:39;;;;;;;;;;;;;;;24.93;47.80;100777.63;5060948;28;20293;-86
2023/07/30 01:57:04;;;;;;;;;;;;;;;24.87;47.85;100779.81;5060675;28;20003;-86
2023/07/30 01:59:30;;;;;;;;;;;;;;;24.79;47.89;100785.44;5060711;28;20296;-86
2023/07/30 02:01:55;;;;;;;;;;;;;;;24.75;47.92;100788.03;5060632;28;20006;-86
2023/07/30 02:04:20;;;;;;;;;;;;;;;24.71;47.93;100789.88;5062424;28;20381;-86
2023/07/30 02:06:46;;;;;;;;;;;;;;;24.67;47.77;100788.97;5057269;28;20293;-86
2023/07/30 02:09:11;;;;;;;;;;;;;;;24.62;47.74;100778.22;5059075;28;19986;-85
2023/07/30 02:11:36;;;;;;;;;;;;;;;24.60;47.83;100786.81;5058351;28;19916;-86
2023/07/30 02:14:02;;;;;;;;;;;;;;;24.57;47.81;100786.66;5059120;28;20384;-86
2023/07/30 02:16:27;;;;;;;;;;;;;;;24.55;47.60;100787.00;5056186;28;19920;-86
2023/07/30 02:18:52;;;;;;;;;;;;;;;24.52;47.60;100786.88;5054427;28;20329;-86
2023/07/30 02:21:18;;;;;;;;;;;;;;;24.50;47.80;100784.50;5063009;28;19916;-86
2023/07/30 02:23:43;;;;;;;;;;;;;;;24.50;47.75;100780.97;5061906;28;19990;-86
2023/07/30 02:26:08;;;;;;;;;;;;;;;24.49;47.71;100782.09;5061879;28;19999;-85
2023/07/30 02:28:34;;;;;;;;;;;;;;;24.46;47.80;100788.25;5060677;28;19925;-86
2023/07/30 02:30:59;;;;;;;;;;;;;;;24.45;47.73;100779.25;5062978;28;19920;-86
2023/07/30 02:33:24;;;;;;;;;;;;;;;24.46;47.76;100796.47;5055923;28;19924;-86
2023/07/30 02:35:49;;;;;;;;;;;;;;;24.44;47.76;100805.03;5062202;28;20335;-86
2023/07/30 02:38:15;;;;;;;;;;;;;;;24.40;47.60;100801.34;5055659;28;20409;-86
2023/07/30 02:40:40;;;;;;;;;;;;;;;24.35;47.56;100796.91;5059284;28;20009;-85
2023/07/30 02:43:05;;;;;;;;;;;;;;;24.30;47.47;100808.09;5060535;28;19956;-86
2023/07/30 02:45:31;;;;;;;;;;;;;;;24.22;47.46;100816.34;5059766;28;19916;-86
2023/07/30 02:47:56;;;;;;;;;;;;;;;24.16;47.58;100823.97;5055097;28;19925;-86
2023/07/30 02:50:21;;;;;;;;;;;;;;;24.08;47.69;100819.41;5063539;28;19925;-86
2023/07/30 02:52:47;;;;;;;;;;;;;;;24.04;47.63;100826.66;5060033;28;20305;-85
2023/07/30 02:55:12;;;;;;;;;;;;;;;23.99;47.66;100821.41;5055793;28;20412;-86
2023/07/30 02:57:37;;;;;;;;;;;;;;;23.98;47.87;100815.13;5061550;28;19916;-86
2023/07/30 03:00:04;;;;;;;;;;;;;;;23.96;47.83;100797.47;5057493;28;19923;-87
2023/07/30 03:02:29;;;;;;;;;;;;;;;23.94;47.82;100810.69;5056237;28;19920;-86
2023/07/30 03:04:54;;;;;;;;;;;;;;;23.93;47.71;100814.56;5058957;28;19927;-86
2023/07/30 03:07:20;;;;;;;;;;;;;;;23.91;47.66;100811.34;5061690;28;19935;-86
2023/07/30 03:09:45;;;;;;;;;;;;;;;23.89;47.63;100813.63;5063063;28;19924;-86
2023/07/30 03:12:11;;;;;;;;;;;;;;;23.86;47.59;100819.75;5057891;28;20282;-86
2023/07/30 03:14:36;;;;;;;;;;;;;;;23.82;47.72;100819.63;5051925;28;19963;-86
2023/07/30 03:17:02;;;;;;;;;;;;;;;23.79;47.72;100832.03;5055954;28;19970;-86
2023/07/30 03:19:27;;;;;;;;;;;;;;;23.76;47.61;100834.66;5050563;28;19990;-85
2023/07/30 03:21:52;;;;;;;;;;;;;;;23.73;47.82;100843.53;5056256;28;19923;-86
2023/07/30 03:24:17;;;;;;;;;;;;;;;23.68;47.80;100838.25;5061438;28;19920;-87
2023/07/30 03:26:43;;;;;;;;;;;;;;;23.66;47.59;100843.25;5062987;28;20046;-86
2023/07/30 03:29:08;;;;;;;;;;;;;;;23.59;47.43;100837.53;5057675;28;20007;-86
2023/07/30 03:31:33;;;;;;;;;;;;;;;23.52;47.57;100827.91;5065783;28;20438;-86
2023/07/30 03:33:59;;;;;;;;;;;;;;;23.47;47.89;100830.00;5061169;28;20439;-86
2023/07/30 03:36:24;;;;;;;;;;;;;;;23.46;47.87;100826.47;5059322;28;19923;-86
2023/07/30 03:38:50;;;;;;;;;;;;;;;23.47;47.76;100821.81;5062180;28;19917;-86
2023/07/30 03:41:15;;;;;;;;;;;;;;;23.47;47.72;100830.00;5062651;28;19927;-87
2023/07/30 03:43:40;;;;;;;;;;;;;;;23.47;47.53;100830.00;5058187;28;19959;-86
2023/07/30 03:46:06;;;;;;;;;;;;;;;23.48;47.61;100837.09;5055442;28;20214;-87
2023/07/30 03:48:31;;;;;;;;;;;;;;;23.48;47.68;100842.53;5054138;28;19920;-86
2023/07/30 03:50:56;;;;;;;;;;;;;;;23.47;47.79;100840.94;5056331;28;19998;-86
2023/07/30 03:53:22;;;;;;;;;;;;;;;23.46;47.75;100845.63;5061252;28;19970;-87
2023/07/30 03:55:48;;;;;;;;;;;;;;;23.46;47.73;100844.81;5054802;28;19920;-86
2023/07/30 03:58:14;;;;;;;;;;;;;;;23.44;47.66;100847.09;5063763;28;19920;-85
2023/07/30 04:00:39;;;;;;;;;;;;;;;23.42;47.85;100844.69;5056431;28;20182;-86
2023/07/30 04:03:05;;;;;;;;;;;;;;;23.43;47.83;100849.03;5059050;28;20155;-86
2023/07/30 04:05:30;;;;;;;;;;;;;;;23.43;47.79;100845.47;5053068;28;20347;-87
2023/07/30 04:07:55;;;;;;;;;;;;;;;23.45;47.92;100843.22;5062737;28;19923;-86
2023/07/30 04:10:21;;;;;;;;;;;;;;;23.47;47.79;100849.94;5054101;28;20024;-87
2023/07/30 04:12:46;;;;;;;;;;;;;;;23.51;47.90;100844.59;5059233;28;20436;-86
2023/07/30 04:15:12;;;;;;;;;;;;;;;23.55;47.82;100853.78;5056684;28;19950;-86
2023/07/30 04:17:37;;;;;;;;;;;;;;;23.59;47.90;100857.47;5056281;28;19925;-86
2023/07/30 04:20:04;;;;;;;;;;;;;;;23.62;47.96;100847.78;5054398;28;19920;-86
2023/07/30 04:22:29;;;;;;;;;;;;;;;23.66;48.00;100856.94;5056549;28;19928;-86
2023/07/30 04:24:54;;;;;;;;;;;;;;;23.67;47.96;100859.34;5052941;28;20014;-86
2023/07/30 04:27:20;;;;;;;;;;;;;;;23.68;48.19;100858.19;5056879;28;20156;-86
2023/07/30 04:29:45;;;;;;;;;;;;;;;23.71;48.09;100860.28;5055367;28;19928;-86
2023/07/30 04:32:10;;;;;;;;;;;;;;;23.77;48.11;100860.88;5059406;28;19924;-86
2023/07/30 04:34:36;;;;;;;;;;;;;;;23.83;48.18;100859.53;5057602;28;19916;-86
2023/07/30 04:37:02;;;;;;;;;;;;;;;23.91;48.18;100866.09;5060395;28;19921;-86
2023/07/30 04:39:27;;;;;;;;;;;;;;;23.96;48.10;100860.41;5060187;28;19924;-86
2023/07/30 04:41:53;;;;;;;;;;;;;;;24.02;48.17;100862.59;5058704;28;20273;-85
2023/07/30 04:44:18;;;;;;;;;;;;;;;24.04;48.12;100865.78;5062533;28;20329;-86
2023/07/30 04:46:44;;;;;;;;;;;;;;;24.07;48.09;100875.28;5060984;28;19923;-86
2023/07/30 04:49:09;;;;;;;;;;;;;;;24.06;48.17;100873.69;5059885;28;20471;-86
2023/07/30 04:51:34;;;;;;;;;;;;;;;24.07;48.23;100880.75;5063746;28;19970;-86
2023/07/30 04:54:00;;;;;;;;;;;;;;;24.09;48.27;100882.03;5059331;28;19920;-86
2023/07/30 04:56:26;;;;;;;;;;;;;;;24.13;48.55;100878.59;5058455;28;20018;-86
2023/07/30 04:58:51;;;;;;;;;;;;;;;24.18;48.49;100876.44;5059115;28;19917;-86
2023/07/30 05:01:17;;;;;;;;;;;;;;;24.23;48.46;100878.97;5064178;28;19926;-86
2023/07/30 05:03:42;;;;;;;;;;;;;;;24.28;48.58;100884.25;5062139;28;20396;-86
2023/07/30 05:06:07;;;;;;;;;;;;;;;24.34;48.26;100884.88;5060187;28;19974;-86
2023/07/30 05:08:33;;;;;;;;;;;;;;;24.38;48.28;100891.25;5059912;28;19921;-86
2023/07/30 05:10:58;;;;;;;;;;;;;;;24.41;48.64;100887.84;5061536;28;19920;-86
2023/07/30 05:13:23;;;;;;;;;;;;;;;24.48;48.47;100890.84;5059677;28;19916;-86
2023/07/30 05:15:48;;;;;;;;;;;;;;;24.56;48.52;100898.16;5061166;28;20016;-85
2023/07/30 05:18:14;;;;;;;;;;;;;;;24.68;48.65;100900.13;5063187;28;20043;-86
2023/07/30 05:20:39;;;;;;;;;;;;;;;24.75;48.26;100894.09;5058480;28;20190;-85
2023/07/30 05:23:06;;;;;;;;;;;;;;;24.79;48.31;100895.03;5061878;28;20283;-86
2023/07/30 05:25:32;;;;;;;;;;;;;;;24.81;48.23;100893.56;5060566;28;20222;-85
2023/07/30 05:27:57;;;;;;;;;;;;;;;24.82;48.29;100902.56;5059513;28;19960;-86
2023/07/30 05:30:22;;;;;;;;;;;;;;;24.82;48.38;100886.94;5060713;28;19921;-85
2023/07/30 05:32:48;;;;;;;;;;;;;;;24.85;48.44;100888.19;5058266;28;20011;-86
2023/07/30 05:35:13;;;;;;;;;;;;;;;24.88;48.45;100893.78;5060070;28;19917;-86
2023/07/30 05:37:38;;;;;;;;;;;;;;;24.88;48.39;100896.50;5057553;28;19982;-85
2023/07/30 05:40:04;;;;;;;;;;;;;;;24.85;48.46;100890.94;5058446;28;19930;-85
2023/07/30 05:42:29;;;;;;;;;;;;;;;24.87;48.85;100892.19;5055600;28;20295;-86
2023/07/30 05:44:55;;;;;;;;;;;;;;;25.01;48.94;100891.88;5061112;28;20192;-86
2023/07/30 05:47:20;;;;;;;;;;;;;;;25.16;48.70;100896.69;5057389;28;20765;-86
2023/07/30 05:49:45;;;;;;;;;;;;;;;25.30;48.53;100894.38;5058946;28;20359;-85
2023/07/30 05:52:11;;;;;;;;;;;;;;;25.37;48.44;100896.56;5057139;28;19923;-86
2023/07/30 05:54:36;;;;;;;;;;;;;;;25.50;48.28;100880.91;5060864;28;20381;-85
2023/07/30 05:57:01;;;;;;;;;;;;;;;25.58;48.15;100888.19;5060979;28;20356;-85
2023/07/30 05:59:27;;;;;;;;;;;;;;;25.65;48.00;100888.41;5058056;28;19928;-85
2023/07/30 06:01:52;;;;;;;;;;;;;;;25.72;48.12;100898.84;5062335;28;19925;-86
2023/07/30 06:04:17;;;;;;;;;;;;;;;25.78;47.93;100892.75;5060893;28;19924;-86
2023/07/30 06:06:43;;;;;;;;;;;;;;;25.81;47.60;100889.31;5054070;28;19927;-86
2023/07/30 06:09:08;;;;;;;;;;;;;;;25.86;47.63;100893.78;5059395;28;19974;-86
2023/07/30 06:11:33;;;;;;;;;;;;;;;25.90;47.38;100889.97;5056768;28;19924;-86
2023/07/30 06:13:59;;;;;;;;;;;;;;;25.90;47.77;100887.22;5061888;28;19956;-86
2023/07/30 06:16:24;;;;;;;;;;;;;;;25.98;47.81;100881.94;5061415;28;19917;-85
2023/07/30 06:18:49;;;;;;;;;;;;;;;26.10;47.32;100885.44;5059621;28;19916;-85
2023/07/30 06:21:15;;;;;;;;;;;;;;;26.13;47.35;100875.69;5060041;28;19916;-85
2023/07/30 06:23:40;;;;;;;;;;;;;;;26.19;47.31;100874.28;5067378;28;19962;-88
2023/07/30 06:26:05;;;;;;;;;;;;;;;26.25;47.23;100880.34;5058125;28;19920;-87
2023/07/30 06:28:31;;;;;;;;;;;;;;;26.27;47.25;100876.09;5060350;28;20380;-91
2023/07/30 06:30:59;;;;;;;;;;;;;;;26.35;47.03;100879.84;5064684;28;19917;-91
2023/07/30 06:33:24;;;;;;;;;;;;;;;26.40;47.11;100877.66;5059631;28;19924;-89
2023/07/30 06:35:49;;;;;;;;;;;;;;;26.53;47.24;100877.59;5060448;28;19977;-87
2023/07/30 06:38:15;;;;;;;;;;;;;;;26.65;46.85;100886.56;5055629;28;19917;-88
2023/07/30 06:40:40;;;;;;;;;;;;;;;26.75;46.55;100883.28;5057870;28;19923;-85
2023/07/30 06:43:06;;;;;;;;;;;;;;;26.83;46.60;100878.75;5061041;28;19924;-88
2023/07/30 06:45:31;;;;;;;;;;;;;;;27.02;46.53;100883.56;5066873;28;19912;-87
2023/07/30 06:47:56;;;;;;;;;;;;;;;27.21;46.39;100875.38;5061778;28;20399;-90
2023/07/30 06:50:21;;;;;;;;;;;;;;;27.35;46.08;100872.97;5060371;28;20402;-85
2023/07/30 06:52:47;;;;;;;;;;;;;;;27.44;45.93;100874.72;5062293;28;19928;-84
2023/07/30 06:55:12;;;;;;;;;;;;;;;27.52;45.52;100879.25;5062046;28;19920;-87
2023/07/30 06:57:37;;;;;;;;;;;;;;;27.54;45.48;100874.16;5057857;28;20006;-83
2023/07/30 07:00:03;;;;;;;;;;;;;;;27.66;45.79;100866.63;5056424;28;19960;-89
2023/07/30 07:02:29;;;;;;;;;;;;;;;27.84;45.67;100869.75;5057363;28;19920;-87
2023/07/30 07:04:55;;;;;;;;;;;;;;;27.96;45.34;100872.34;5062809;28;19936;-88
2023/07/30 07:07:20;;;;;;;;;;;;;;;28.03;45.38;100866.19;5056216;28;20428;-86
2023/07/30 07:09:45;;;;;;;;;;;;;;;28.21;45.45;100867.34;5052351;28;20304;-84
2023/07/30 07:12:11;;;;;;;;;;;;;;;28.37;44.82;100863.69;5058959;28;19917;-86
2023/07/30 07:14:36;;;;;;;;;;;;;;;28.50;44.83;100873.38;5060174;28;19920;-87
2023/07/30 07:17:01;;;;;;;;;;;;;;;28.62;44.85;100872.41;5061771;28;19920;-87
2023/07/30 07:19:27;;;;;;;;;;;;;;;28.73;44.32;100871.44;5062422;28;20035;-90
2023/07/30 07:21:52;;;;;;;;;;;;;;;28.76;44.53;100876.22;5056602;28;19928;-89
2023/07/30 07:24:17;;;;;;;;;;;;;;;28.79;43.86;100874.69;5061665;28;19917;-88
2023/07/30 07:26:43;;;;;;;;;;;;;;;28.81;43.79;100866.84;5057422;28;20339;-90
2023/07/30 07:29:09;;;;;;;;;;;;;;;28.81;42.96;100861.31;5062996;28;20019;-90
2023/07/30 07:31:34;;;;;;;;;;;;;;;28.74;43.53;100862.00;5067251;28;20181;-86
2023/07/30 07:33:59;;;;;;;;;;;;;;;28.83;43.58;100859.00;5059892;28;19952;-86
2023/07/30 07:36:25;;;;;;;;;;;;;;;28.87;42.84;100857.91;5058736;28;19930;-86
2023/07/30 07:38:50;;;;;;;;;;;;;;;28.87;43.03;100862.63;5060351;28;20388;-87
2023/07/30 07:41:19;;;;;;;;;;;;;;;28.96;43.29;100860.41;5058138;28;19921;-85
2023/07/30 07:43:46;;;;;;;;;;;;;;;29.03;42.59;100863.28;5050637;28;20030;-90
2023/07/30 07:46:14;;;;;;;;;;;;;;;29.11;42.97;100861.44;5065997;28;20409;-90
2023/07/30 07:48:43;;;;;;;;;;;;;;;29.18;42.65;100859.56;5055687;28;19971;-89
2023/07/30 07:51:09;;;;;;;;;;;;;;;29.12;42.42;100850.03;5059879;28;19927;-88
2023/07/30 07:53:34;;;;;;;;;;;;;;;29.19;42.34;100850.13;5057577;28;20015;-87
2023/07/30 07:55:59;;;;;;;;;;;;;;;29.32;42.28;100853.47;5060860;28;20381;-86
2023/07/30 07:58:24;;;;;;;;;;;;;;;29.38;41.86;100851.97;5060824;28;19921;-86
2023/07/30 08:00:50;;;;;;;;;;;;;;;29.49;41.48;100857.69;5059400;28;19916;-89
2023/07/30 08:03:15;;;;;;;;;;;;;;;29.44;41.65;100856.03;5059097;28;19927;-84
2023/07/30 08:05:40;;;;;;;;;;;;;;;29.37;41.40;100852.34;5059690;28;19924;-89
2023/07/30 08:08:06;;;;;;;;;;;;;;;29.43;40.91;100854.41;5063046;28;19920;-87
2023/07/30 08:10:31;;;;;;;;;;;;;;;29.52;41.00;100851.41;5068345;28;20295;-89
2023/07/30 08:12:57;;;;;;;;;;;;;;;29.61;41.09;100862.16;5067095;28;19933;-89
2023/07/30 08:15:22;;;;;;;;;;;;;;;29.73;40.97;100851.69;5063407;28;20269;-89
2023/07/30 08:17:47;;;;;;;;;;;;;;;29.82;40.69;100851.41;5065587;28;19939;-89
2023/07/30 08:20:13;;;;;;;;;;;;;;;29.91;40.67;100856.63;5066114;28;19938;-90
2023/07/30 08:22:38;;;;;;;;;;;;;;;29.96;40.72;100851.56;5064017;28;20007;-89
2023/07/30 08:25:04;;;;;;;;;;;;;;;29.89;40.69;100856.22;5062541;28;19920;-88
2023/07/30 08:27:30;;;;;;;;;;;;;;;29.78;40.61;100853.31;5066692;28;19928;-89
2023/07/30 08:29:55;;;;;;;;;;;;;;;29.71;40.84;100858.75;5067254;28;19928;-84
2023/07/30 08:32:20;;;;;;;;;;;;;;;29.74;41.17;100864.31;5062081;28;19956;-89
2023/07/30 08:34:46;;;;;;;;;;;;;;;29.76;41.10;100863.94;5060822;28;20451;-89
2023/07/30 08:37:11;;;;;;;;;;;;;;;29.79;40.94;100866.72;5057680;28;19936;-90
2023/07/30 08:39:36;;;;;;;;;;;;;;;29.78;40.64;100851.34;5061301;28;19920;-86
2023/07/30 08:42:02;;;;;;;;;;;;;;;29.79;41.15;100855.69;5058610;28;20351;-90
2023/07/30 08:44:27;;;;;;;;;;;;;;;29.90;40.32;100855.81;5061234;28;20722;-85
2023/07/30 08:46:53;;;;;;;;;;;;;;;29.95;40.62;100849.97;5060598;28;19920;-87
2023/07/30 08:49:18;;;;;;;;;;;;;;;30.04;40.56;100863.53;5060268;28;19927;-84
2023/07/30 08:51:44;;;;;;;;;;;;;;;30.11;40.20;100857.28;5057051;28;19927;-87
2023/07/30 08:54:10;;;;;;;;;;;;;;;30.14;40.43;100860.06;5057091;28;19959;-87
2023/07/30 08:56:36;;;;;;;;;;;;;;;30.25;40.49;100857.44;5065544;28;20407;-87
2023/07/30 08:59:02;;;;;;;;;;;;;;;30.37;39.87;100857.16;5064851;28;19920;-87
2023/07/30 09:01:34;;;;;;;;;;;;;;;30.49;40.03;100853.31;5060517;28;19932;-87
2023/07/30 09:04:00;;;;;;;;;;;;;;;30.65;39.85;100856.66;5060908;28;19968;-87
2023/07/30 09:06:25;;;;;;;;;;;;;;;30.72;39.46;100858.69;5064268;28;19948;-87
2023/07/30 09:08:51;;;;;;;;;;;;;;;30.68;39.13;100861.41;5063185;28;19921;-88
2023/07/30 09:11:16;;;;;;;;;;;;;;;30.74;39.58;100859.91;5061227;28;19959;-88
2023/07/30 09:13:42;;;;;;;;;;;;;;;30.81;39.16;100853.63;5058094;28;20398;-86
2023/07/30 09:16:13;;;;;;;;;;;;;;;30.90;39.07;100852.13;5059255;28;19920;-84
2023/07/30 09:18:43;;;;;;;;;;;;;;;31.14;39.17;100850.72;5058578;28;19921;-86
2023/07/30 09:21:12;;;;;;;;;;;;;;;31.35;38.86;100852.84;5065418;28;19989;-84
2023/07/30 09:23:42;;;;;;;;;;;;;;;31.47;38.03;100858.06;5057056;28;19925;-84
2023/07/30 09:26:07;;;;;;;;;;;;;;;31.60;38.03;100857.69;5061613;28;20031;-85
2023/07/30 09:28:32;;;;;;;;;;;;;;;31.61;37.35;100851.81;5063028;28;20006;-88
2023/07/30 09:31:04;;;;;;;;;;;;;;;31.46;37.14;100853.69;5065739;28;20372;-87
2023/07/30 09:33:31;;;;;;;;;;;;;;;31.31;37.75;100851.25;5056387;28;20046;-86
2023/07/30 09:35:56;;;;;;;;;;;;;;;31.33;37.45;100843.34;5060212;28;19920;-88
2023/07/30 09:38:21;;;;;;;;;;;;;;;31.25;37.35;100856.34;5057289;28;19924;-86
2023/07/30 09:40:50;;;;;;;;;;;;;;;31.20;37.25;100854.72;5060606;28;19925;-86
2023/07/30 09:43:15;;;;;;;;;;;;;;;31.18;37.47;100859.06;5061960;28;19925;-89
2023/07/30 09:45:44;;;;;;;;;;;;;;;31.19;35.73;100849.56;5060375;28;20404;-88
2023/07/30 09:48:09;;;;;;;;;;;;;;;31.11;36.47;100859.00;5058066;28;19924;-85
2023/07/30 09:50:35;;;;;;;;;;;;;;;30.96;36.78;100861.66;5060130;28;19920;-88
2023/07/30 09:53:01;;;;;;;;;;;;;;;30.85;36.89;100863.53;5063865;28;20546;-85
2023/07/30 09:55:27;;;;;;;;;;;;;;;30.75;36.75;100872.56;5064542;28;20023;-89
2023/07/30 09:57:52;;;;;;;;;;;;;;;30.73;36.88;100863.84;5068657;28;20006;-89
2023/07/30 10:00:17;;;;;;;;;;;;;;;30.82;36.74;100856.00;5070448;28;19916;-89
2023/07/30 10:02:46;;;;;;;;;;;;;;;31.04;35.86;100862.50;5060913;28;20299;-87
2023/07/30 10:05:15;;;;;;;;;;;;;;;31.15;35.27;100870.88;5065243;28;20399;-88
2023/07/30 10:07:53;;;;;;;;;;;;;;;31.12;35.52;100858.59;5057861;28;19916;-90
2023/07/30 10:10:20;;;;;;;;;;;;;;;31.26;35.50;100869.00;5063869;28;19924;-88
2023/07/30 10:12:46;;;;;;;;;;;;;;;31.32;35.62;100850.06;5068791;28;19978;-89
2023/07/30 10:15:11;;;;;;;;;;;;;;;31.35;34.88;100854.81;5067388;28;19920;-89
2023/07/30 10:17:37;;;;;;;;;;;;;;;31.23;34.93;100864.22;5067772;28;19966;-84
2023/07/30 10:20:23;;;;;;;;;;;;;;;31.09;34.98;100862.16;5059010;28;19920;-84
2023/07/30 10:22:51;;;;;;;;;;;;;;;31.12;35.22;100864.16;5062656;28;19920;-90
2023/07/30 10:25:19;;;;;;;;;;;;;;;31.36;34.93;100861.94;5062094;28;20007;-87
2023/07/30 10:27:49;;;;;;;;;;;;;;;31.51;33.76;100858.88;5061771;28;19962;-86
2023/07/30 10:30:15;;;;;;;;;;;;;;;31.54;33.82;100866.38;5068974;28;19930;-86
2023/07/30 10:32:55;;;;;;;;;;;;;;;31.55;32.98;100859.66;5064341;28;19921;-88
2023/07/30 10:35:37;;;;;;;;;;;;;;;31.75;33.55;100854.63;5062661;28;19923;-84
2023/07/30 10:38:15;;;;;;;;;;;;;;;31.98;31.18;100859.88;5072761;28;20005;-87
2023/07/30 10:40:40;;;;;;;;;;;;;;;32.17;32.65;100851.22;5058083;28;19963;-87
2023/07/30 10:43:16;;;;;;;;;;;;;;;32.36;32.33;100852.09;5063928;28;19959;-85
2023/07/30 10:45:50;;;;;;;;;;;;;;;32.38;32.32;100855.25;5062083;28;19978;-87
2023/07/30 10:48:16;;;;;;;;;;;;;;;32.34;32.52;100862.78;5059932;28;19920;-86
2023/07/30 10:50:42;;;;;;;;;;;;;;;32.39;32.35;100851.28;5061185;28;19924;-84
2023/07/30 10:53:10;;;;;;;;;;;;;;;32.44;31.64;100853.66;5056527;28;19956;-86
2023/07/30 10:55:36;;;;;;;;;;;;;;;32.42;32.08;100845.75;5061321;28;19966;-85
2023/07/30 10:58:02;;;;;;;;;;;;;;;32.62;31.98;100848.13;5059143;28;19920;-84
2023/07/30 11:00:28;;;;;;;;;;;;;;;32.75;31.57;100841.00;5059138;28;20237;-86
2023/07/30 11:02:56;;;;;;;;;;;;;;;32.78;31.50;100848.53;5062062;28;19920;-85
2023/07/30 11:05:21;;;;;;;;;;;;;;;32.91;31.63;100854.50;5068534;28;19917;-85
2023/07/30 11:07:50;;;;;;;;;;;;;;;32.93;31.65;100846.56;5061762;28;20722;-84
2023/07/30 11:10:16;;;;;;;;;;;;;;;32.89;31.60;100846.59;5052307;28;19943;-85
2023/07/30 11:12:41;;;;;;;;;;;;;;;32.79;31.44;100841.00;5054491;28;19921;-85
2023/07/30 11:15:07;;;;;;;;;;;;;;;32.81;30.60;100846.97;5059231;28;19920;-84
2023/07/30 11:17:32;;;;;;;;;;;;;;;32.99;31.49;100840.22;5053972;28;19927;-84
2023/07/30 11:19:57;;;;;;;;;;;;;;;33.26;30.90;100848.09;5053039;28;20426;-84
2023/07/30 11:22:30;;;;;;;;;;;;;;;33.42;30.68;100840.16;5061517;28;20396;-84
2023/07/30 11:24:55;;;;;;;;;;;;;;;33.58;30.22;100848.84;5056168;28;19920;-85
2023/07/30 11:27:21;;;;;;;;;;;;;;;33.67;30.05;100847.59;5060466;28;20192;-83
2023/07/30 11:29:56;;;;;;;;;;;;;;;33.81;30.61;100841.97;5058602;28;20202;-83
2023/07/30 11:32:23;;;;;;;;;;;;;;;34.03;30.29;100851.03;5059609;28;19917;-83
2023/07/30 11:34:49;;;;;;;;;;;;;;;34.02;28.97;100860.56;5057266;28;20489;-82
2023/07/30 11:37:14;;;;;;;;;;;;;;;33.83;29.62;100853.47;5057568;28;19921;-87
2023/07/30 11:39:40;;;;;;;;;;;;;;;33.70;29.95;100849.56;5059995;28;19932;-84
2023/07/30 11:42:06;;;;;;;;;;;;;;;33.69;29.31;100862.66;5066516;28;20019;-86
2023/07/30 11:44:32;;;;;;;;;;;;;;;33.63;28.30;100848.41;5072091;28;20007;-85
2023/07/30 11:46:57;;;;;;;;;;;;;;;33.77;29.33;100850.34;5069873;28;20023;-84
2023/07/30 11:49:23;;;;;;;;;;;;;;;33.98;29.05;100849.47;5067491;28;20082;-84
2023/07/30 11:51:49;;;;;;;;;;;;;;;34.16;28.66;100855.72;5067111;28;19917;-85
2023/07/30 11:54:25;;;;;;;;;;;;;;;34.14;28.26;100857.31;5064665;28;19921;-85
2023/07/30 11:56:56;;;;;;;;;;;;;;;33.99;28.04;100844.69;5068277;28;19935;-85
2023/07/30 11:59:21;;;;;;;;;;;;;;;33.90;28.39;100850.69;5059502;28;19924;-88
2023/07/30 12:01:47;;;;;;;;;;;;;;;33.93;28.09;100849.88;5068081;28;19924;-85
2023/07/30 12:04:12;;;;;;;;;;;;;;;34.01;28.03;100845.06;5060786;28;20505;-84
2023/07/30 12:06:38;;;;;;;;;;;;;;;34.10;26.96;100837.06;5063375;28;19920;-85
2023/07/30 12:09:30;;;;;;;;;;;;;;;34.04;27.36;100838.69;5056667;28;20162;-89
2023/07/30 12:11:57;;;;;;;;;;;;;;;33.90;27.69;100837.56;5057891;28;19923;-88
2023/07/30 12:14:29;;;;;;;;;;;;;;;33.86;27.36;100825.69;5062747;28;19952;-88
2023/07/30 12:16:55;;;;;;;;;;;;;;;33.77;27.86;100836.44;5066162;28;20132;-86
2023/07/30 12:19:20;;;;;;;;;;;;;;;33.93;27.79;100838.75;5065562;28;20352;-86
2023/07/30 12:21:45;;;;;;;;;;;;;;;34.06;28.05;100839.09;5058313;28;19939;-82
2023/07/30 12:24:11;;;;;;;;;;;;;;;34.10;27.81;100840.63;5061234;28;19925;-83
2023/07/30 12:26:36;;;;;;;;;;;;;;;34.06;27.27;100836.31;5065734;28;19935;-84
2023/07/30 12:29:01;;;;;;;;;;;;;;;33.90;27.79;100834.00;5060252;28;19920;-83